sensor_id;sensor_type;location;lat;lon;timestamp;P1;durP1;ratioP1;P2;durP2;ratioP2
5428;SDS011;2737;52.386;9.980;2022-12-10T00:01:34;99.77;;;23.17;;
5428;SDS011;2737;52.386;9.980;2022-12-10T00:04:01;99.87;;;23.00;;
5428;SDS011;2737;52.386;9.980;2022-12-10T00:06:30;88.00;;;23.60;;
5428;SDS011;2737;52.386;9.980;2022-12-10T00:09:00;95.83;;;27.27;;
5428;SDS011;2737;52.386;9.980;2022-12-10T00:11:29;122.53;;;29.37;;
5428;SDS011;2737;52.386;9.980;2022-12-10T00:13:57;107.53;;;25.90;;
5428;SDS011;2737;52.386;9.980;2022-12-10T00:16:25;103.33;;;25.30;;
5428;SDS011;2737;52.386;9.980;2022-12-10T00:18:53;99.33;;;25.63;;
5428;SDS011;2737;52.386;9.980;2022-12-10T00:21:21;82.60;;;22.60;;
5428;SDS011;2737;52.386;9.980;2022-12-10T00:23:50;92.77;;;26.10;;
5428;SDS011;2737;52.386;9.980;2022-12-10T00:26:18;90.77;;;23.03;;
5428;SDS011;2737;52.386;9.980;2022-12-10T00:28:48;85.27;;;21.83;;
5428;SDS011;2737;52.386;9.980;2022-12-10T00:31:16;87.30;;;25.00;;
5428;SDS011;2737;52.386;9.980;2022-12-10T00:33:45;80.00;;;23.90;;
5428;SDS011;2737;52.386;9.980;2022-12-10T00:36:13;79.33;;;22.93;;
5428;SDS011;2737;52.386;9.980;2022-12-10T00:38:42;73.77;;;22.93;;
5428;SDS011;2737;52.386;9.980;2022-12-10T00:41:10;89.70;;;22.03;;
5428;SDS011;2737;52.386;9.980;2022-12-10T00:43:39;83.10;;;22.70;;
5428;SDS011;2737;52.386;9.980;2022-12-10T00:46:08;74.77;;;21.67;;
5428;SDS011;2737;52.386;9.980;2022-12-10T00:48:36;65.73;;;22.10;;
5428;SDS011;2737;52.386;9.980;2022-12-10T00:51:04;77.63;;;23.10;;
5428;SDS011;2737;52.386;9.980;2022-12-10T00:53:33;80.63;;;23.77;;
5428;SDS011;2737;52.386;9.980;2022-12-10T00:56:01;80.07;;;22.37;;
5428;SDS011;2737;52.386;9.980;2022-12-10T00:58:29;78.60;;;23.93;;
5428;SDS011;2737;52.386;9.980;2022-12-10T01:01:05;76.37;;;20.87;;
5428;SDS011;2737;52.386;9.980;2022-12-10T01:03:36;64.23;;;21.67;;
5428;SDS011;2737;52.386;9.980;2022-12-10T01:06:07;78.20;;;22.17;;
5428;SDS011;2737;52.386;9.980;2022-12-10T01:08:35;67.53;;;21.87;;
5428;SDS011;2737;52.386;9.980;2022-12-10T01:11:02;83.80;;;24.13;;
5428;SDS011;2737;52.386;9.980;2022-12-10T01:13:30;63.73;;;21.57;;
5428;SDS011;2737;52.386;9.980;2022-12-10T01:15:59;78.70;;;23.30;;
5428;SDS011;2737;52.386;9.980;2022-12-10T01:18:28;66.63;;;21.57;;
5428;SDS011;2737;52.386;9.980;2022-12-10T01:20:57;74.63;;;22.13;;
5428;SDS011;2737;52.386;9.980;2022-12-10T01:23:27;69.70;;;21.57;;
5428;SDS011;2737;52.386;9.980;2022-12-10T01:25:58;72.40;;;21.93;;
5428;SDS011;2737;52.386;9.980;2022-12-10T01:28:27;67.33;;;21.30;;
5428;SDS011;2737;52.386;9.980;2022-12-10T01:30:55;76.13;;;22.13;;
5428;SDS011;2737;52.386;9.980;2022-12-10T01:33:26;71.67;;;21.00;;
5428;SDS011;2737;52.386;9.980;2022-12-10T01:35:54;74.23;;;23.33;;
5428;SDS011;2737;52.386;9.980;2022-12-10T01:38:22;61.83;;;21.10;;
5428;SDS011;2737;52.386;9.980;2022-12-10T01:40:49;66.60;;;20.40;;
5428;SDS011;2737;52.386;9.980;2022-12-10T01:43:16;55.00;;;20.63;;
5428;SDS011;2737;52.386;9.980;2022-12-10T01:45:43;65.87;;;19.90;;
5428;SDS011;2737;52.386;9.980;2022-12-10T01:48:10;52.73;;;17.57;;
5428;SDS011;2737;52.386;9.980;2022-12-10T01:50:37;50.03;;;17.17;;
5428;SDS011;2737;52.386;9.980;2022-12-10T01:53:06;63.73;;;20.30;;
5428;SDS011;2737;52.386;9.980;2022-12-10T01:55:36;62.07;;;18.43;;
5428;SDS011;2737;52.386;9.980;2022-12-10T01:58:06;49.90;;;18.47;;
5428;SDS011;2737;52.386;9.980;2022-12-10T02:00:34;53.70;;;17.90;;
5428;SDS011;2737;52.386;9.980;2022-12-10T02:03:10;50.87;;;16.70;;
5428;SDS011;2737;52.386;9.980;2022-12-10T02:05:43;55.73;;;18.23;;
5428;SDS011;2737;52.386;9.980;2022-12-10T02:08:21;57.30;;;16.47;;
5428;SDS011;2737;52.386;9.980;2022-12-10T02:10:57;48.30;;;17.90;;
5428;SDS011;2737;52.386;9.980;2022-12-10T02:13:33;53.87;;;18.97;;
5428;SDS011;2737;52.386;9.980;2022-12-10T02:16:06;50.07;;;18.40;;
5428;SDS011;2737;52.386;9.980;2022-12-10T02:18:39;51.60;;;19.13;;
5428;SDS011;2737;52.386;9.980;2022-12-10T02:21:12;61.67;;;19.33;;
5428;SDS011;2737;52.386;9.980;2022-12-10T02:23:45;56.23;;;19.83;;
5428;SDS011;2737;52.386;9.980;2022-12-10T02:26:16;59.17;;;19.87;;
5428;SDS011;2737;52.386;9.980;2022-12-10T02:28:50;59.37;;;18.50;;
5428;SDS011;2737;52.386;9.980;2022-12-10T02:31:23;57.43;;;18.67;;
5428;SDS011;2737;52.386;9.980;2022-12-10T02:33:56;62.37;;;18.33;;
5428;SDS011;2737;52.386;9.980;2022-12-10T02:36:26;64.27;;;19.87;;
5428;SDS011;2737;52.386;9.980;2022-12-10T02:38:58;66.77;;;18.73;;
5428;SDS011;2737;52.386;9.980;2022-12-10T02:41:30;67.00;;;19.40;;
5428;SDS011;2737;52.386;9.980;2022-12-10T02:44:00;79.50;;;21.30;;
5428;SDS011;2737;52.386;9.980;2022-12-10T02:46:33;68.53;;;19.47;;
5428;SDS011;2737;52.386;9.980;2022-12-10T02:49:03;76.27;;;18.27;;
5428;SDS011;2737;52.386;9.980;2022-12-10T02:51:33;72.23;;;20.27;;
5428;SDS011;2737;52.386;9.980;2022-12-10T02:54:00;84.87;;;19.87;;
5428;SDS011;2737;52.386;9.980;2022-12-10T02:56:31;76.67;;;20.07;;
5428;SDS011;2737;52.386;9.980;2022-12-10T02:59:06;73.30;;;19.60;;
5428;SDS011;2737;52.386;9.980;2022-12-10T03:01:42;76.53;;;19.20;;
5428;SDS011;2737;52.386;9.980;2022-12-10T03:04:18;76.70;;;19.20;;
5428;SDS011;2737;52.386;9.980;2022-12-10T03:06:52;73.40;;;19.10;;
5428;SDS011;2737;52.386;9.980;2022-12-10T03:09:24;84.97;;;19.50;;
5428;SDS011;2737;52.386;9.980;2022-12-10T03:11:56;69.47;;;19.23;;
5428;SDS011;2737;52.386;9.980;2022-12-10T03:14:29;72.03;;;18.43;;
5428;SDS011;2737;52.386;9.980;2022-12-10T03:16:59;113.00;;;20.93;;
5428;SDS011;2737;52.386;9.980;2022-12-10T03:19:30;65.33;;;18.07;;
5428;SDS011;2737;52.386;9.980;2022-12-10T03:21:59;70.30;;;18.80;;
5428;SDS011;2737;52.386;9.980;2022-12-10T03:24:29;75.23;;;18.03;;
5428;SDS011;2737;52.386;9.980;2022-12-10T03:26:58;68.13;;;17.03;;
5428;SDS011;2737;52.386;9.980;2022-12-10T03:29:28;67.77;;;18.47;;
5428;SDS011;2737;52.386;9.980;2022-12-10T03:32:01;68.37;;;19.60;;
5428;SDS011;2737;52.386;9.980;2022-12-10T03:34:29;70.67;;;18.10;;
5428;SDS011;2737;52.386;9.980;2022-12-10T03:36:56;67.83;;;17.57;;
5428;SDS011;2737;52.386;9.980;2022-12-10T03:39:24;63.67;;;19.53;;
5428;SDS011;2737;52.386;9.980;2022-12-10T03:41:52;67.37;;;19.60;;
5428;SDS011;2737;52.386;9.980;2022-12-10T03:44:26;84.63;;;19.60;;
5428;SDS011;2737;52.386;9.980;2022-12-10T03:46:54;100.77;;;18.93;;
5428;SDS011;2737;52.386;9.980;2022-12-10T03:49:23;55.03;;;16.53;;
5428;SDS011;2737;52.386;9.980;2022-12-10T03:51:50;62.20;;;18.70;;
5428;SDS011;2737;52.386;9.980;2022-12-10T03:54:17;77.73;;;19.23;;
5428;SDS011;2737;52.386;9.980;2022-12-10T03:56:45;73.17;;;17.10;;
5428;SDS011;2737;52.386;9.980;2022-12-10T03:59:12;61.87;;;18.67;;
5428;SDS011;2737;52.386;9.980;2022-12-10T04:01:39;65.30;;;17.07;;
5428;SDS011;2737;52.386;9.980;2022-12-10T04:04:07;60.87;;;17.53;;
5428;SDS011;2737;52.386;9.980;2022-12-10T04:06:36;80.53;;;20.93;;
5428;SDS011;2737;52.386;9.980;2022-12-10T04:09:04;65.20;;;17.77;;
5428;SDS011;2737;52.386;9.980;2022-12-10T04:11:31;70.77;;;17.60;;
5428;SDS011;2737;52.386;9.980;2022-12-10T04:13:58;65.10;;;16.97;;
5428;SDS011;2737;52.386;9.980;2022-12-10T04:16:42;65.90;;;16.33;;
5428;SDS011;2737;52.386;9.980;2022-12-10T04:19:11;73.70;;;18.97;;
5428;SDS011;2737;52.386;9.980;2022-12-10T04:21:41;60.87;;;17.30;;
5428;SDS011;2737;52.386;9.980;2022-12-10T04:24:28;62.43;;;18.60;;
5428;SDS011;2737;52.386;9.980;2022-12-10T04:27:16;72.03;;;17.73;;
5428;SDS011;2737;52.386;9.980;2022-12-10T04:29:44;73.23;;;16.50;;
5428;SDS011;2737;52.386;9.980;2022-12-10T04:32:11;70.57;;;17.20;;
5428;SDS011;2737;52.386;9.980;2022-12-10T04:34:39;58.13;;;15.87;;
5428;SDS011;2737;52.386;9.980;2022-12-10T04:37:07;54.10;;;15.30;;
5428;SDS011;2737;52.386;9.980;2022-12-10T04:39:36;58.57;;;16.83;;
5428;SDS011;2737;52.386;9.980;2022-12-10T04:42:04;66.23;;;18.00;;
5428;SDS011;2737;52.386;9.980;2022-12-10T04:44:31;52.33;;;16.60;;
5428;SDS011;2737;52.386;9.980;2022-12-10T04:46:58;56.80;;;18.07;;
5428;SDS011;2737;52.386;9.980;2022-12-10T04:49:26;55.57;;;15.03;;
5428;SDS011;2737;52.386;9.980;2022-12-10T04:51:53;44.77;;;13.80;;
5428;SDS011;2737;52.386;9.980;2022-12-10T04:54:22;53.70;;;15.50;;
5428;SDS011;2737;52.386;9.980;2022-12-10T04:56:50;48.33;;;15.33;;
5428;SDS011;2737;52.386;9.980;2022-12-10T04:59:17;45.17;;;14.60;;
5428;SDS011;2737;52.386;9.980;2022-12-10T05:01:44;42.53;;;13.17;;
5428;SDS011;2737;52.386;9.980;2022-12-10T05:04:12;42.37;;;13.30;;
5428;SDS011;2737;52.386;9.980;2022-12-10T05:06:40;49.17;;;13.60;;
5428;SDS011;2737;52.386;9.980;2022-12-10T05:09:09;45.50;;;13.73;;
5428;SDS011;2737;52.386;9.980;2022-12-10T05:11:38;40.97;;;13.80;;
5428;SDS011;2737;52.386;9.980;2022-12-10T05:14:05;47.57;;;14.73;;
5428;SDS011;2737;52.386;9.980;2022-12-10T05:16:33;42.20;;;14.30;;
5428;SDS011;2737;52.386;9.980;2022-12-10T05:19:00;48.03;;;15.67;;
5428;SDS011;2737;52.386;9.980;2022-12-10T05:21:28;44.77;;;14.40;;
5428;SDS011;2737;52.386;9.980;2022-12-10T05:24:18;46.33;;;14.47;;
5428;SDS011;2737;52.386;9.980;2022-12-10T05:26:45;44.17;;;12.53;;
5428;SDS011;2737;52.386;9.980;2022-12-10T05:29:16;37.70;;;12.47;;
5428;SDS011;2737;52.386;9.980;2022-12-10T05:31:43;38.43;;;13.90;;
5428;SDS011;2737;52.386;9.980;2022-12-10T05:34:10;38.40;;;14.60;;
5428;SDS011;2737;52.386;9.980;2022-12-10T05:36:38;42.73;;;15.83;;
5428;SDS011;2737;52.386;9.980;2022-12-10T05:39:05;49.37;;;15.63;;
5428;SDS011;2737;52.386;9.980;2022-12-10T05:41:34;41.70;;;13.90;;
5428;SDS011;2737;52.386;9.980;2022-12-10T05:44:04;33.60;;;12.80;;
5428;SDS011;2737;52.386;9.980;2022-12-10T05:46:33;35.63;;;13.47;;
5428;SDS011;2737;52.386;9.980;2022-12-10T05:49:01;30.30;;;10.17;;
5428;SDS011;2737;52.386;9.980;2022-12-10T05:51:30;36.83;;;11.73;;
5428;SDS011;2737;52.386;9.980;2022-12-10T05:53:58;36.23;;;12.00;;
5428;SDS011;2737;52.386;9.980;2022-12-10T05:56:28;30.90;;;10.33;;
5428;SDS011;2737;52.386;9.980;2022-12-10T05:58:57;24.20;;;9.90;;
5428;SDS011;2737;52.386;9.980;2022-12-10T06:01:27;37.40;;;13.17;;
5428;SDS011;2737;52.386;9.980;2022-12-10T06:03:56;33.83;;;12.00;;
5428;SDS011;2737;52.386;9.980;2022-12-10T06:06:25;31.43;;;12.17;;
5428;SDS011;2737;52.386;9.980;2022-12-10T06:08:54;37.83;;;13.90;;
5428;SDS011;2737;52.386;9.980;2022-12-10T06:11:21;44.40;;;13.50;;
5428;SDS011;2737;52.386;9.980;2022-12-10T06:13:49;38.20;;;12.80;;
5428;SDS011;2737;52.386;9.980;2022-12-10T06:16:16;44.50;;;12.70;;
5428;SDS011;2737;52.386;9.980;2022-12-10T06:18:44;50.20;;;15.07;;
5428;SDS011;2737;52.386;9.980;2022-12-10T06:21:12;42.67;;;13.97;;
5428;SDS011;2737;52.386;9.980;2022-12-10T06:23:41;40.50;;;13.77;;
5428;SDS011;2737;52.386;9.980;2022-12-10T06:26:09;45.63;;;14.43;;
5428;SDS011;2737;52.386;9.980;2022-12-10T06:28:37;39.93;;;13.50;;
5428;SDS011;2737;52.386;9.980;2022-12-10T06:31:05;41.63;;;14.23;;
5428;SDS011;2737;52.386;9.980;2022-12-10T06:33:32;38.93;;;13.60;;
5428;SDS011;2737;52.386;9.980;2022-12-10T06:36:02;41.43;;;13.13;;
5428;SDS011;2737;52.386;9.980;2022-12-10T06:38:30;38.10;;;12.17;;
5428;SDS011;2737;52.386;9.980;2022-12-10T06:40:57;32.83;;;12.83;;
5428;SDS011;2737;52.386;9.980;2022-12-10T06:43:24;37.50;;;13.70;;
5428;SDS011;2737;52.386;9.980;2022-12-10T06:45:54;33.67;;;11.77;;
5428;SDS011;2737;52.386;9.980;2022-12-10T06:48:21;35.73;;;13.57;;
5428;SDS011;2737;52.386;9.980;2022-12-10T06:50:48;35.73;;;12.83;;
5428;SDS011;2737;52.386;9.980;2022-12-10T06:53:16;35.93;;;12.63;;
5428;SDS011;2737;52.386;9.980;2022-12-10T06:55:43;34.57;;;13.30;;
5428;SDS011;2737;52.386;9.980;2022-12-10T06:58:10;34.07;;;12.60;;
5428;SDS011;2737;52.386;9.980;2022-12-10T07:00:37;30.37;;;13.27;;
5428;SDS011;2737;52.386;9.980;2022-12-10T07:03:04;30.83;;;11.97;;
5428;SDS011;2737;52.386;9.980;2022-12-10T07:05:31;30.83;;;12.50;;
5428;SDS011;2737;52.386;9.980;2022-12-10T07:07:58;29.80;;;11.33;;
5428;SDS011;2737;52.386;9.980;2022-12-10T07:10:27;36.67;;;11.80;;
5428;SDS011;2737;52.386;9.980;2022-12-10T07:12:54;32.90;;;12.23;;
5428;SDS011;2737;52.386;9.980;2022-12-10T07:15:22;35.97;;;12.20;;
5428;SDS011;2737;52.386;9.980;2022-12-10T07:17:50;34.17;;;12.40;;
5428;SDS011;2737;52.386;9.980;2022-12-10T07:20:17;31.70;;;11.43;;
5428;SDS011;2737;52.386;9.980;2022-12-10T07:22:44;32.47;;;13.40;;
5428;SDS011;2737;52.386;9.980;2022-12-10T07:25:11;36.47;;;13.33;;
5428;SDS011;2737;52.386;9.980;2022-12-10T07:27:40;40.03;;;12.43;;
5428;SDS011;2737;52.386;9.980;2022-12-10T07:30:07;41.43;;;14.60;;
5428;SDS011;2737;52.386;9.980;2022-12-10T07:32:35;41.27;;;13.50;;
5428;SDS011;2737;52.386;9.980;2022-12-10T07:35:02;40.73;;;13.83;;
5428;SDS011;2737;52.386;9.980;2022-12-10T07:37:30;40.07;;;13.43;;
5428;SDS011;2737;52.386;9.980;2022-12-10T07:39:57;38.33;;;14.30;;
5428;SDS011;2737;52.386;9.980;2022-12-10T07:42:24;35.63;;;13.87;;
5428;SDS011;2737;52.386;9.980;2022-12-10T07:44:52;40.57;;;15.00;;
5428;SDS011;2737;52.386;9.980;2022-12-10T07:47:19;31.57;;;13.63;;
5428;SDS011;2737;52.386;9.980;2022-12-10T07:49:47;34.83;;;12.93;;
5428;SDS011;2737;52.386;9.980;2022-12-10T07:52:14;36.33;;;13.20;;
5428;SDS011;2737;52.386;9.980;2022-12-10T07:54:41;42.47;;;15.30;;
5428;SDS011;2737;52.386;9.980;2022-12-10T07:57:08;47.30;;;15.07;;
5428;SDS011;2737;52.386;9.980;2022-12-10T07:59:35;37.60;;;13.33;;
5428;SDS011;2737;52.386;9.980;2022-12-10T08:02:03;40.97;;;15.67;;
5428;SDS011;2737;52.386;9.980;2022-12-10T08:04:30;40.67;;;14.27;;
5428;SDS011;2737;52.386;9.980;2022-12-10T08:06:57;42.10;;;15.73;;
5428;SDS011;2737;52.386;9.980;2022-12-10T08:09:24;44.63;;;15.27;;
5428;SDS011;2737;52.386;9.980;2022-12-10T08:11:52;36.43;;;14.87;;
5428;SDS011;2737;52.386;9.980;2022-12-10T08:14:19;42.07;;;15.50;;
5428;SDS011;2737;52.386;9.980;2022-12-10T08:16:46;35.30;;;13.30;;
5428;SDS011;2737;52.386;9.980;2022-12-10T08:19:14;46.27;;;14.70;;
5428;SDS011;2737;52.386;9.980;2022-12-10T08:21:41;41.10;;;14.97;;
5428;SDS011;2737;52.386;9.980;2022-12-10T08:24:09;44.27;;;13.80;;
5428;SDS011;2737;52.386;9.980;2022-12-10T08:26:36;46.87;;;14.10;;
5428;SDS011;2737;52.386;9.980;2022-12-10T08:29:03;43.00;;;14.23;;
5428;SDS011;2737;52.386;9.980;2022-12-10T08:31:30;40.50;;;14.40;;
5428;SDS011;2737;52.386;9.980;2022-12-10T08:33:57;40.10;;;13.10;;
5428;SDS011;2737;52.386;9.980;2022-12-10T08:36:26;45.80;;;13.97;;
5428;SDS011;2737;52.386;9.980;2022-12-10T08:38:53;35.53;;;13.90;;
5428;SDS011;2737;52.386;9.980;2022-12-10T08:41:21;39.00;;;13.97;;
5428;SDS011;2737;52.386;9.980;2022-12-10T08:43:50;43.20;;;14.20;;
5428;SDS011;2737;52.386;9.980;2022-12-10T08:46:18;41.83;;;15.10;;
5428;SDS011;2737;52.386;9.980;2022-12-10T08:48:45;38.97;;;13.87;;
5428;SDS011;2737;52.386;9.980;2022-12-10T08:51:13;44.40;;;13.67;;
5428;SDS011;2737;52.386;9.980;2022-12-10T08:53:43;37.03;;;14.10;;
5428;SDS011;2737;52.386;9.980;2022-12-10T08:56:11;43.77;;;14.00;;
5428;SDS011;2737;52.386;9.980;2022-12-10T08:58:38;36.23;;;13.37;;
5428;SDS011;2737;52.386;9.980;2022-12-10T09:01:06;42.60;;;13.10;;
5428;SDS011;2737;52.386;9.980;2022-12-10T09:03:34;38.87;;;13.73;;
5428;SDS011;2737;52.386;9.980;2022-12-10T09:06:02;40.57;;;12.77;;
5428;SDS011;2737;52.386;9.980;2022-12-10T09:08:30;40.20;;;13.23;;
5428;SDS011;2737;52.386;9.980;2022-12-10T09:11:00;34.63;;;13.53;;
5428;SDS011;2737;52.386;9.980;2022-12-10T09:13:31;37.57;;;12.53;;
5428;SDS011;2737;52.386;9.980;2022-12-10T09:15:58;33.50;;;12.97;;
5428;SDS011;2737;52.386;9.980;2022-12-10T09:18:25;33.83;;;12.27;;
5428;SDS011;2737;52.386;9.980;2022-12-10T09:20:52;42.93;;;13.43;;
5428;SDS011;2737;52.386;9.980;2022-12-10T09:23:19;43.17;;;13.57;;
5428;SDS011;2737;52.386;9.980;2022-12-10T09:25:46;35.27;;;14.00;;
5428;SDS011;2737;52.386;9.980;2022-12-10T09:28:14;40.13;;;13.90;;
5428;SDS011;2737;52.386;9.980;2022-12-10T09:30:42;34.07;;;12.50;;
5428;SDS011;2737;52.386;9.980;2022-12-10T09:33:09;38.10;;;12.90;;
5428;SDS011;2737;52.386;9.980;2022-12-10T09:35:39;34.23;;;12.20;;
5428;SDS011;2737;52.386;9.980;2022-12-10T09:38:07;39.93;;;12.90;;
5428;SDS011;2737;52.386;9.980;2022-12-10T09:40:35;35.30;;;14.17;;
5428;SDS011;2737;52.386;9.980;2022-12-10T09:43:10;31.90;;;12.90;;
5428;SDS011;2737;52.386;9.980;2022-12-10T09:45:47;35.67;;;12.47;;
5428;SDS011;2737;52.386;9.980;2022-12-10T09:48:26;38.03;;;12.80;;
5428;SDS011;2737;52.386;9.980;2022-12-10T09:51:00;29.00;;;12.30;;
5428;SDS011;2737;52.386;9.980;2022-12-10T09:53:33;33.53;;;12.70;;
5428;SDS011;2737;52.386;9.980;2022-12-10T09:56:03;29.90;;;10.80;;
5428;SDS011;2737;52.386;9.980;2022-12-10T09:58:32;31.90;;;12.33;;
5428;SDS011;2737;52.386;9.980;2022-12-10T10:01:03;34.87;;;12.47;;
5428;SDS011;2737;52.386;9.980;2022-12-10T10:03:33;33.73;;;11.57;;
5428;SDS011;2737;52.386;9.980;2022-12-10T10:06:04;37.37;;;12.50;;
5428;SDS011;2737;52.386;9.980;2022-12-10T10:08:33;32.47;;;11.47;;
5428;SDS011;2737;52.386;9.980;2022-12-10T10:11:02;32.90;;;11.60;;
5428;SDS011;2737;52.386;9.980;2022-12-10T10:13:31;37.60;;;13.03;;
5428;SDS011;2737;52.386;9.980;2022-12-10T10:16:17;35.33;;;11.70;;
5428;SDS011;2737;52.386;9.980;2022-12-10T10:18:52;43.53;;;12.73;;
5428;SDS011;2737;52.386;9.980;2022-12-10T10:21:24;29.87;;;12.50;;
5428;SDS011;2737;52.386;9.980;2022-12-10T10:23:53;31.87;;;11.63;;
5428;SDS011;2737;52.386;9.980;2022-12-10T10:26:23;40.50;;;12.80;;
5428;SDS011;2737;52.386;9.980;2022-12-10T10:28:54;37.70;;;11.90;;
5428;SDS011;2737;52.386;9.980;2022-12-10T10:31:25;32.17;;;10.90;;
5428;SDS011;2737;52.386;9.980;2022-12-10T10:33:54;34.90;;;12.70;;
5428;SDS011;2737;52.386;9.980;2022-12-10T10:36:24;36.50;;;12.17;;
5428;SDS011;2737;52.386;9.980;2022-12-10T10:38:53;33.87;;;12.07;;
5428;SDS011;2737;52.386;9.980;2022-12-10T10:41:20;41.67;;;13.80;;
5428;SDS011;2737;52.386;9.980;2022-12-10T10:43:51;42.67;;;12.87;;
5428;SDS011;2737;52.386;9.980;2022-12-10T10:46:26;45.87;;;12.50;;
5428;SDS011;2737;52.386;9.980;2022-12-10T10:48:55;42.27;;;12.93;;
5428;SDS011;2737;52.386;9.980;2022-12-10T10:51:41;40.40;;;12.50;;
5428;SDS011;2737;52.386;9.980;2022-12-10T10:54:10;39.17;;;13.53;;
5428;SDS011;2737;52.386;9.980;2022-12-10T10:56:39;35.70;;;13.30;;
5428;SDS011;2737;52.386;9.980;2022-12-10T10:59:19;45.20;;;13.80;;
5428;SDS011;2737;52.386;9.980;2022-12-10T11:01:56;43.27;;;14.60;;
5428;SDS011;2737;52.386;9.980;2022-12-10T11:04:29;43.10;;;13.40;;
5428;SDS011;2737;52.386;9.980;2022-12-10T11:07:03;41.37;;;12.60;;
5428;SDS011;2737;52.386;9.980;2022-12-10T11:09:40;51.13;;;15.37;;
5428;SDS011;2737;52.386;9.980;2022-12-10T11:12:20;42.80;;;13.63;;
5428;SDS011;2737;52.386;9.980;2022-12-10T11:15:00;51.60;;;14.10;;
5428;SDS011;2737;52.386;9.980;2022-12-10T11:17:27;44.33;;;14.67;;
5428;SDS011;2737;52.386;9.980;2022-12-10T11:19:57;54.17;;;13.07;;
5428;SDS011;2737;52.386;9.980;2022-12-10T11:22:26;43.60;;;14.20;;
5428;SDS011;2737;52.386;9.980;2022-12-10T11:24:54;46.73;;;13.57;;
5428;SDS011;2737;52.386;9.980;2022-12-10T11:27:31;39.47;;;12.80;;
5428;SDS011;2737;52.386;9.980;2022-12-10T11:30:08;45.30;;;14.07;;
5428;SDS011;2737;52.386;9.980;2022-12-10T11:32:40;49.03;;;14.20;;
5428;SDS011;2737;52.386;9.980;2022-12-10T11:35:21;46.60;;;15.10;;
5428;SDS011;2737;52.386;9.980;2022-12-10T11:37:57;55.60;;;15.30;;
5428;SDS011;2737;52.386;9.980;2022-12-10T11:40:32;46.80;;;14.43;;
5428;SDS011;2737;52.386;9.980;2022-12-10T11:43:11;44.70;;;14.73;;
5428;SDS011;2737;52.386;9.980;2022-12-10T11:45:51;48.17;;;14.60;;
5428;SDS011;2737;52.386;9.980;2022-12-10T11:48:30;46.53;;;14.63;;
5428;SDS011;2737;52.386;9.980;2022-12-10T11:51:07;45.17;;;13.90;;
5428;SDS011;2737;52.386;9.980;2022-12-10T11:53:47;46.23;;;15.57;;
5428;SDS011;2737;52.386;9.980;2022-12-10T11:56:22;40.77;;;14.40;;
5428;SDS011;2737;52.386;9.980;2022-12-10T11:58:56;38.07;;;14.53;;
5428;SDS011;2737;52.386;9.980;2022-12-10T12:01:31;42.33;;;14.70;;
5428;SDS011;2737;52.386;9.980;2022-12-10T12:04:19;52.50;;;14.90;;
5428;SDS011;2737;52.386;9.980;2022-12-10T12:09:45;46.37;;;15.17;;
5428;SDS011;2737;52.386;9.980;2022-12-10T12:12:28;51.37;;;16.77;;
5428;SDS011;2737;52.386;9.980;2022-12-10T12:15:02;43.27;;;14.50;;
5428;SDS011;2737;52.386;9.980;2022-12-10T12:17:37;45.00;;;14.57;;
5428;SDS011;2737;52.386;9.980;2022-12-10T12:20:13;36.70;;;14.60;;
5428;SDS011;2737;52.386;9.980;2022-12-10T12:22:44;38.10;;;14.57;;
5428;SDS011;2737;52.386;9.980;2022-12-10T12:25:16;40.07;;;14.07;;
5428;SDS011;2737;52.386;9.980;2022-12-10T12:27:50;48.37;;;15.60;;
5428;SDS011;2737;52.386;9.980;2022-12-10T12:30:24;55.97;;;16.60;;
5428;SDS011;2737;52.386;9.980;2022-12-10T12:32:53;39.80;;;12.60;;
5428;SDS011;2737;52.386;9.980;2022-12-10T12:35:27;42.93;;;15.80;;
5428;SDS011;2737;52.386;9.980;2022-12-10T12:38:03;42.53;;;14.90;;
5428;SDS011;2737;52.386;9.980;2022-12-10T12:40:43;39.67;;;14.70;;
5428;SDS011;2737;52.386;9.980;2022-12-10T12:43:16;42.03;;;14.47;;
5428;SDS011;2737;52.386;9.980;2022-12-10T12:45:49;45.27;;;16.83;;
5428;SDS011;2737;52.386;9.980;2022-12-10T12:48:22;45.10;;;14.83;;
5428;SDS011;2737;52.386;9.980;2022-12-10T12:50:54;41.93;;;15.40;;
5428;SDS011;2737;52.386;9.980;2022-12-10T12:53:25;36.20;;;14.47;;
5428;SDS011;2737;52.386;9.980;2022-12-10T12:55:55;49.50;;;18.87;;
5428;SDS011;2737;52.386;9.980;2022-12-10T12:58:27;33.17;;;13.57;;
5428;SDS011;2737;52.386;9.980;2022-12-10T13:01:06;39.00;;;13.20;;
5428;SDS011;2737;52.386;9.980;2022-12-10T13:03:43;39.63;;;15.00;;
5428;SDS011;2737;52.386;9.980;2022-12-10T13:06:11;35.03;;;14.10;;
5428;SDS011;2737;52.386;9.980;2022-12-10T13:08:48;36.37;;;13.23;;
5428;SDS011;2737;52.386;9.980;2022-12-10T13:11:24;35.57;;;13.63;;
5428;SDS011;2737;52.386;9.980;2022-12-10T13:14:09;32.40;;;12.33;;
5428;SDS011;2737;52.386;9.980;2022-12-10T13:16:47;35.47;;;13.90;;
5428;SDS011;2737;52.386;9.980;2022-12-10T13:19:29;31.90;;;12.90;;
5428;SDS011;2737;52.386;9.980;2022-12-10T13:21:58;34.37;;;13.70;;
5428;SDS011;2737;52.386;9.980;2022-12-10T13:24:43;35.13;;;14.27;;
5428;SDS011;2737;52.386;9.980;2022-12-10T13:27:29;40.93;;;14.00;;
5428;SDS011;2737;52.386;9.980;2022-12-10T13:29:59;34.47;;;14.10;;
5428;SDS011;2737;52.386;9.980;2022-12-10T13:32:42;35.77;;;14.17;;
5428;SDS011;2737;52.386;9.980;2022-12-10T13:38:17;29.53;;;12.47;;
5428;SDS011;2737;52.386;9.980;2022-12-10T13:40:56;30.10;;;12.33;;
5428;SDS011;2737;52.386;9.980;2022-12-10T13:43:51;35.57;;;14.33;;
5428;SDS011;2737;52.386;9.980;2022-12-10T13:49:22;34.70;;;13.73;;
5428;SDS011;2737;52.386;9.980;2022-12-10T13:51:54;39.33;;;14.80;;
5428;SDS011;2737;52.386;9.980;2022-12-10T13:54:31;36.07;;;13.20;;
5428;SDS011;2737;52.386;9.980;2022-12-10T13:57:29;35.77;;;14.33;;
5428;SDS011;2737;52.386;9.980;2022-12-10T14:00:18;40.00;;;15.70;;
5428;SDS011;2737;52.386;9.980;2022-12-10T14:05:55;38.63;;;14.00;;
5428;SDS011;2737;52.386;9.980;2022-12-10T14:08:35;37.70;;;13.43;;
5428;SDS011;2737;52.386;9.980;2022-12-10T14:11:04;33.57;;;12.87;;
5428;SDS011;2737;52.386;9.980;2022-12-10T14:13:37;37.70;;;14.00;;
5428;SDS011;2737;52.386;9.980;2022-12-10T14:16:09;32.67;;;13.83;;
5428;SDS011;2737;52.386;9.980;2022-12-10T14:18:38;30.70;;;13.17;;
5428;SDS011;2737;52.386;9.980;2022-12-10T14:21:08;39.70;;;15.27;;
5428;SDS011;2737;52.386;9.980;2022-12-10T14:23:39;39.10;;;15.30;;
5428;SDS011;2737;52.386;9.980;2022-12-10T14:26:11;33.70;;;13.30;;
5428;SDS011;2737;52.386;9.980;2022-12-10T14:28:40;37.13;;;14.43;;
5428;SDS011;2737;52.386;9.980;2022-12-10T14:31:12;37.67;;;14.70;;
5428;SDS011;2737;52.386;9.980;2022-12-10T14:33:44;34.73;;;14.60;;
5428;SDS011;2737;52.386;9.980;2022-12-10T14:36:16;37.17;;;15.20;;
5428;SDS011;2737;52.386;9.980;2022-12-10T14:38:49;36.93;;;14.30;;
5428;SDS011;2737;52.386;9.980;2022-12-10T14:41:18;33.93;;;15.27;;
5428;SDS011;2737;52.386;9.980;2022-12-10T14:43:47;36.13;;;14.40;;
5428;SDS011;2737;52.386;9.980;2022-12-10T14:46:16;39.73;;;14.50;;
5428;SDS011;2737;52.386;9.980;2022-12-10T14:48:48;37.23;;;15.37;;
5428;SDS011;2737;52.386;9.980;2022-12-10T14:51:18;38.93;;;15.73;;
5428;SDS011;2737;52.386;9.980;2022-12-10T14:53:46;44.43;;;16.03;;
5428;SDS011;2737;52.386;9.980;2022-12-10T14:56:16;37.20;;;14.30;;
5428;SDS011;2737;52.386;9.980;2022-12-10T14:58:53;40.27;;;14.27;;
5428;SDS011;2737;52.386;9.980;2022-12-10T15:01:27;45.70;;;16.43;;
5428;SDS011;2737;52.386;9.980;2022-12-10T15:03:56;43.10;;;15.57;;
5428;SDS011;2737;52.386;9.980;2022-12-10T15:06:26;38.33;;;16.30;;
5428;SDS011;2737;52.386;9.980;2022-12-10T15:08:55;36.20;;;14.87;;
5428;SDS011;2737;52.386;9.980;2022-12-10T15:11:25;39.00;;;15.03;;
5428;SDS011;2737;52.386;9.980;2022-12-10T15:13:54;37.37;;;15.47;;
5428;SDS011;2737;52.386;9.980;2022-12-10T15:16:28;38.40;;;16.27;;
5428;SDS011;2737;52.386;9.980;2022-12-10T15:19:07;40.10;;;14.57;;
5428;SDS011;2737;52.386;9.980;2022-12-10T15:21:40;35.87;;;15.50;;